Time;durP1;ratioP1;P1;durP2;ratioP2;P2;SDS_P1;SDS_P2;PMS_P1;PMS_P2;Temp;Humidity;BMP_temperature;BMP_pressure;BME280_temperature;BME280_humidity;BME280_pressure;Samples;Min_cycle;Max_cycle;Signal;HPM_P1;HPM_P2
2022/04/06 00:04:50;;;;;;;4.32;2.63;;;;;;;;;;10328466;28;20096;-64
2022/04/06 00:09:51;;;;;;;3.72;2.75;;;;;;;;;;10328332;28;20038;-64
2022/04/06 00:14:51;;;;;;;6.35;2.78;;;;;;;;;;10327928;28;20022;-64
2022/04/06 00:19:52;;;;;;;14.15;3.65;;;;;;;;;;10327362;28;20061;-64
2022/04/06 00:24:52;;;;;;;6.38;3.15;;;;;;;;;;10327773;28;20050;-64
2022/04/06 00:29:53;;;;;;;8.48;3.70;;;;;;;;;;10327419;28;20061;-64
2022/04/06 00:40:13;;;;;;;7.32;3.28;;;;;;;;;;10326863;28;20125;-65
2022/04/06 00:45:13;;;;;;;6.82;3.20;;;;;;;;;;10325711;28;20026;-69
2022/04/06 00:50:14;;;;;;;4.60;3.30;;;;;;;;;;10326619;28;20149;-70
2022/04/06 00:55:16;;;;;;;5.47;3.28;;;;;;;;;;10300088;28;20027;-69
2022/04/06 01:00:17;;;;;;;5.38;3.33;;;;;;;;;;10295610;28;20441;-68
2022/04/06 01:05:18;;;;;;;6.90;3.42;;;;;;;;;;10321200;28;20031;-69
2022/04/06 01:10:19;;;;;;;7.88;3.78;;;;;;;;;;10326899;28;20049;-69
2022/04/06 01:15:20;;;;;;;4.85;3.40;;;;;;;;;;10326523;28;20035;-70
2022/04/06 01:20:20;;;;;;;4.95;3.30;;;;;;;;;;10326162;28;20417;-68
2022/04/06 01:25:21;;;;;;;5.72;3.55;;;;;;;;;;10326335;28;20030;-69
2022/04/06 01:30:22;;;;;;;10.75;4.10;;;;;;;;;;10326149;28;20018;-70
2022/04/06 01:35:22;;;;;;;5.35;3.35;;;;;;;;;;10325651;28;20026;-68
2022/04/06 01:40:26;;;;;;;7.50;3.42;;;;;;;;;;10325913;28;20026;-70
2022/04/06 01:45:27;;;;;;;6.88;3.42;;;;;;;;;;10325557;28;20026;-70
2022/04/06 01:55:47;;;;;;;5.38;3.35;;;;;;;;;;10333329;28;20054;-70
2022/04/06 02:00:48;;;;;;;5.55;3.90;;;;;;;;;;10332232;28;20105;-70
2022/04/06 02:05:49;;;;;;;4.20;3.55;;;;;;;;;;10331705;28;20062;-70
2022/04/06 02:10:49;;;;;;;7.70;3.83;;;;;;;;;;10331942;28;20034;-67
2022/04/06 02:15:50;;;;;;;5.85;3.60;;;;;;;;;;10332418;28;20037;-67
2022/04/06 02:20:51;;;;;;;7.38;3.40;;;;;;;;;;10332162;28;20254;-66
2022/04/06 02:25:51;;;;;;;7.55;4.15;;;;;;;;;;10332110;28;20410;-65
2022/04/06 02:30:52;;;;;;;8.15;4.00;;;;;;;;;;10331694;28;20061;-64
2022/04/06 02:35:52;;;;;;;7.38;3.75;;;;;;;;;;10331627;28;20022;-68
2022/04/06 02:40:53;;;;;;;6.55;3.50;;;;;;;;;;10331678;28;20034;-65
2022/04/06 02:45:53;;;;;;;4.47;3.28;;;;;;;;;;10331500;28;20034;-64
2022/04/06 02:50:54;;;;;;;7.10;3.63;;;;;;;;;;10330663;28;20034;-67
2022/04/06 02:55:55;;;;;;;3.92;3.38;;;;;;;;;;10330595;28;20137;-68
2022/04/06 03:00:56;;;;;;;5.53;3.33;;;;;;;;;;10330508;28;20045;-68
2022/04/06 03:05:57;;;;;;;4.53;3.50;;;;;;;;;;10344449;28;20038;-64
2022/04/06 03:10:58;;;;;;;3.70;3.30;;;;;;;;;;10330124;28;20081;-67
2022/04/06 03:15:59;;;;;;;6.50;3.58;;;;;;;;;;10329910;28;20037;-70
2022/04/06 03:20:59;;;;;;;8.07;3.65;;;;;;;;;;10344649;28;20085;-71
2022/04/06 03:26:00;;;;;;;5.60;3.90;;;;;;;;;;10329774;28;20019;-69
2022/04/06 03:31:00;;;;;;;6.35;3.40;;;;;;;;;;10329534;28;20375;-71
2022/04/06 03:36:02;;;;;;;4.50;3.30;;;;;;;;;;10329542;28;20378;-70
2022/04/06 03:41:03;;;;;;;5.93;3.47;;;;;;;;;;10329058;28;20027;-67
2022/04/06 03:46:03;;;;;;;4.80;3.55;;;;;;;;;;10328544;28;20030;-67
2022/04/06 03:51:04;;;;;;;5.88;3.35;;;;;;;;;;10328736;28;20033;-68
2022/04/06 03:56:05;;;;;;;4.88;3.38;;;;;;;;;;10328023;28;20478;-65
2022/04/06 04:01:06;;;;;;;3.17;2.78;;;;;;;;;;10327970;28;20033;-64
2022/04/06 04:06:07;;;;;;;4.45;3.28;;;;;;;;;;10327796;28;20085;-67
2022/04/06 04:11:08;;;;;;;4.30;3.50;;;;;;;;;;10327641;28;20095;-68
2022/04/06 04:16:08;;;;;;;5.50;4.00;;;;;;;;;;10327050;28;20030;-66
2022/04/06 04:26:29;;;;;;;5.25;3.65;;;;;;;;;;10327535;28;20401;-68
2022/04/06 04:31:30;;;;;;;4.85;3.63;;;;;;;;;;10327892;28;20105;-69
2022/04/06 04:36:30;;;;;;;4.03;3.55;;;;;;;;;;10326506;28;20030;-70
2022/04/06 04:41:31;;;;;;;3.83;3.30;;;;;;;;;;10326407;28;20042;-71
2022/04/06 04:46:32;;;;;;;4.38;3.40;;;;;;;;;;10326799;28;20120;-70
2022/04/06 04:51:32;;;;;;;3.53;3.13;;;;;;;;;;10294945;28;20434;-72
2022/04/06 04:56:33;;;;;;;4.03;3.45;;;;;;;;;;10286769;28;20070;-70
2022/04/06 05:01:33;;;;;;;3.63;3.17;;;;;;;;;;10285363;28;20027;-68
2022/04/06 05:06:36;;;;;;;3.92;3.53;;;;;;;;;;10287539;28;20233;-68
2022/04/06 05:11:37;;;;;;;4.82;3.70;;;;;;;;;;10288443;28;20473;-74
2022/04/06 05:16:37;;;;;;;6.85;3.20;;;;;;;;;;10300358;28;20084;-74
2022/04/06 05:21:38;;;;;;;4.22;2.95;;;;;;;;;;10307570;28;20182;-74
2022/04/06 05:26:38;;;;;;;8.70;3.17;;;;;;;;;;10319246;28;20022;-72
2022/04/06 05:31:39;;;;;;;10.65;3.30;;;;;;;;;;10326744;28;20031;-72
2022/04/06 05:36:40;;;;;;;6.32;3.55;;;;;;;;;;10331925;28;20022;-75
2022/04/06 05:41:40;;;;;;;5.45;3.13;;;;;;;;;;10330389;28;20046;-63
2022/04/06 05:46:41;;;;;;;8.18;3.75;;;;;;;;;;10311552;28;20033;-71
2022/04/06 05:51:41;;;;;;;8.02;3.28;;;;;;;;;;10324286;28;20042;-74
2022/04/06 05:56:42;;;;;;;4.38;3.38;;;;;;;;;;10321511;28;20039;-73
2022/04/06 06:01:43;;;;;;;7.00;3.08;;;;;;;;;;10311172;28;20030;-74
2022/04/06 06:06:43;;;;;;;10.52;3.65;;;;;;;;;;10337091;28;20030;-70
2022/04/06 06:11:44;;;;;;;8.23;4.30;;;;;;;;;;10327790;28;20027;-71
2022/04/06 06:16:45;;;;;;;23.98;4.85;;;;;;;;;;10328818;28;20026;-67
2022/04/06 06:21:46;;;;;;;27.48;4.68;;;;;;;;;;10346529;28;20048;-67
2022/04/06 06:26:47;;;;;;;12.18;4.53;;;;;;;;;;10325009;28;20034;-66
2022/04/06 06:31:48;;;;;;;20.65;4.53;;;;;;;;;;10330468;28;20152;-67
2022/04/06 06:36:48;;;;;;;23.90;4.90;;;;;;;;;;10328350;28;20026;-67
2022/04/06 06:41:49;;;;;;;11.13;4.40;;;;;;;;;;10331250;28;20030;-67
2022/04/06 06:46:50;;;;;;;23.05;5.03;;;;;;;;;;10331521;28;20031;-67
2022/04/06 06:51:50;;;;;;;12.32;5.10;;;;;;;;;;10330572;28;20461;-67
2022/04/06 06:56:51;;;;;;;15.65;5.13;;;;;;;;;;10330563;28;20046;-68
2022/04/06 07:01:51;;;;;;;11.05;4.70;;;;;;;;;;10330768;28;20438;-67
2022/04/06 07:06:52;;;;;;;11.55;4.28;;;;;;;;;;10330422;28;20043;-67
2022/04/06 07:11:52;;;;;;;14.77;4.50;;;;;;;;;;10329841;28;20096;-67
2022/04/06 07:16:54;;;;;;;12.15;4.13;;;;;;;;;;10330123;28;20105;-66
2022/04/06 07:21:54;;;;;;;10.30;4.78;;;;;;;;;;10329426;28;20038;-67
2022/04/06 07:26:55;;;;;;;14.93;4.75;;;;;;;;;;10329699;28;20133;-67
2022/04/06 07:31:55;;;;;;;9.70;4.47;;;;;;;;;;10329161;28;20097;-68
2022/04/06 07:36:56;;;;;;;10.43;5.13;;;;;;;;;;10329027;28;20027;-67
2022/04/06 07:41:57;;;;;;;7.25;4.13;;;;;;;;;;10328848;28;20042;-67
2022/04/06 07:46:58;;;;;;;13.35;4.35;;;;;;;;;;10328749;28;20034;-67
2022/04/06 07:51:59;;;;;;;11.63;4.13;;;;;;;;;;10328524;28;20056;-68
2022/04/06 07:56:59;;;;;;;14.43;4.93;;;;;;;;;;10327575;28;20054;-67
2022/04/06 08:02:00;;;;;;;9.77;4.55;;;;;;;;;;10328107;28;20041;-68
2022/04/06 08:07:00;;;;;;;8.55;3.85;;;;;;;;;;10328067;28;20030;-68
2022/04/06 08:12:01;;;;;;;12.18;4.32;;;;;;;;;;10328295;28;20026;-67
2022/04/06 08:17:04;;;;;;;8.65;3.63;;;;;;;;;;10327963;28;20173;-68
2022/04/06 08:22:04;;;;;;;8.23;3.90;;;;;;;;;;10327847;28;20078;-68
2022/04/06 08:27:05;;;;;;;9.13;3.88;;;;;;;;;;10327376;28;20030;-67
2022/04/06 08:32:06;;;;;;;7.22;3.90;;;;;;;;;;10327718;28;20465;-67
2022/04/06 08:37:08;;;;;;;7.70;3.58;;;;;;;;;;10327026;28;20034;-67
2022/04/06 08:42:10;;;;;;;7.57;3.78;;;;;;;;;;10327299;28;20038;-68
2022/04/06 08:47:11;;;;;;;6.93;3.70;;;;;;;;;;10327269;28;20099;-68
2022/04/06 08:52:13;;;;;;;5.43;3.53;;;;;;;;;;10326713;28;20449;-67
2022/04/06 08:57:14;;;;;;;9.63;3.92;;;;;;;;;;10326831;28;20556;-68
2022/04/06 09:02:19;;;;;;;5.90;3.97;;;;;;;;;;10331311;28;20034;-68
2022/04/06 09:07:22;;;;;;;7.53;3.83;;;;;;;;;;10335265;28;20030;-68
2022/04/06 09:12:24;;;;;;;5.35;3.58;;;;;;;;;;10334551;28;20049;-68
2022/04/06 09:17:25;;;;;;;7.22;3.58;;;;;;;;;;10335156;28;20035;-67
2022/04/06 09:22:27;;;;;;;5.72;3.58;;;;;;;;;;10334252;28;20474;-67
2022/04/06 09:27:32;;;;;;;7.43;4.03;;;;;;;;;;10334457;28;20377;-67
2022/04/06 09:32:33;;;;;;;5.80;3.88;;;;;;;;;;10334226;28;20033;-67
2022/04/06 09:37:33;;;;;;;8.13;4.10;;;;;;;;;;10334086;28;20363;-68
2022/04/06 09:42:34;;;;;;;6.30;3.65;;;;;;;;;;10333712;28;20434;-68
2022/04/06 09:47:42;;;;;;;4.38;3.17;;;;;;;;;;10333802;28;20088;-68
2022/04/06 09:52:44;;;;;;;8.43;3.90;;;;;;;;;;10333612;28;20050;-67
2022/04/06 09:57:56;;;;;;;7.10;3.72;;;;;;;;;;10333271;28;20185;-67
2022/04/06 10:03:08;;;;;;;7.05;3.42;;;;;;;;;;10331705;28;20121;-67
2022/04/06 10:08:10;;;;;;;7.07;3.35;;;;;;;;;;10332827;28;20034;-68
2022/04/06 10:13:11;;;;;;;7.72;3.65;;;;;;;;;;10332702;28;20022;-68
2022/04/06 10:18:12;;;;;;;4.82;3.80;;;;;;;;;;10332373;28;20038;-67
2022/04/06 10:23:35;;;;;;;8.02;3.75;;;;;;;;;;10332355;28;20030;-67
2022/04/06 10:28:38;;;;;;;4.57;3.42;;;;;;;;;;10329924;28;20030;-66
2022/04/06 10:33:39;;;;;;;7.72;3.67;;;;;;;;;;10290375;28;20097;-67
2022/04/06 10:38:40;;;;;;;7.97;3.70;;;;;;;;;;10305476;28;20065;-66
2022/04/06 10:43:40;;;;;;;6.20;3.65;;;;;;;;;;10290655;28;20031;-68
2022/04/06 10:49:06;;;;;;;7.72;3.80;;;;;;;;;;10295772;28;20031;-67
2022/04/06 10:54:12;;;;;;;4.35;3.50;;;;;;;;;;10289670;28;20023;-67
2022/04/06 10:59:24;;;;;;;7.93;3.47;;;;;;;;;;10294464;28;20038;-66
2022/04/06 11:04:24;;;;;;;7.55;3.53;;;;;;;;;;10293628;28;20093;-68
2022/04/06 11:14:58;;;;;;;6.55;4.40;;;;;;;;;;10291617;28;20043;-67
2022/04/06 11:20:01;;;;;;;5.57;4.03;;;;;;;;;;10289367;28;20390;-66
2022/04/06 11:25:08;;;;;;;6.43;3.38;;;;;;;;;;10292710;28;20066;-67
2022/04/06 11:30:26;;;;;;;10.13;4.22;;;;;;;;;;10329895;28;20033;-67
2022/04/06 11:35:36;;;;;;;6.78;3.60;;;;;;;;;;10297807;28;20042;-67
2022/04/06 11:40:37;;;;;;;6.10;4.10;;;;;;;;;;10305328;28;20105;-67
2022/04/06 11:45:41;;;;;;;10.05;4.95;;;;;;;;;;10288980;28;20097;-67
2022/04/06 11:50:43;;;;;;;7.43;5.43;;;;;;;;;;10326325;28;20477;-67
2022/04/06 11:55:53;;;;;;;7.32;5.63;;;;;;;;;;10327904;28;20688;-67
2022/04/06 12:01:01;;;;;;;8.13;5.60;;;;;;;;;;10323562;28;20513;-68
2022/04/06 12:06:05;;;;;;;13.88;6.50;;;;;;;;;;10291669;28;20522;-67
2022/04/06 12:11:07;;;;;;;11.13;5.85;;;;;;;;;;10305119;28;20438;-67
2022/04/06 12:16:09;;;;;;;9.45;5.68;;;;;;;;;;10312913;28;20042;-67
2022/04/06 12:21:25;;;;;;;8.48;5.40;;;;;;;;;;10292347;28;20034;-67
2022/04/06 12:26:45;;;;;;;11.50;5.45;;;;;;;;;;10314898;28;20069;-66
2022/04/06 12:31:46;;;;;;;11.13;4.82;;;;;;;;;;10309375;28;20038;-67
2022/04/06 12:36:50;;;;;;;9.45;4.80;;;;;;;;;;10305805;28;20038;-67
2022/04/06 12:42:04;;;;;;;9.52;4.35;;;;;;;;;;10324108;28;20034;-68
2022/04/06 12:47:19;;;;;;;11.82;5.22;;;;;;;;;;10304336;28;20049;-66
2022/04/06 12:52:23;;;;;;;6.72;4.38;;;;;;;;;;10312164;28;20038;-67
2022/04/06 12:57:26;;;;;;;7.80;4.15;;;;;;;;;;10308645;28;20096;-67
2022/04/06 13:02:32;;;;;;;8.90;4.60;;;;;;;;;;10326263;28;20034;-67
2022/04/06 13:07:40;;;;;;;5.93;4.25;;;;;;;;;;10323788;28;20050;-66
2022/04/06 13:12:44;;;;;;;10.18;4.03;;;;;;;;;;10301002;28;20579;-66
2022/04/06 13:17:47;;;;;;;7.90;3.55;;;;;;;;;;10320772;28;20103;-62
2022/04/06 13:22:51;;;;;;;6.78;3.97;;;;;;;;;;10326115;28;20039;-67
2022/04/06 13:27:52;;;;;;;6.40;3.58;;;;;;;;;;10316969;28;20096;-63
2022/04/06 13:32:53;;;;;;;5.85;3.40;;;;;;;;;;10323007;28;20084;-62
2022/04/06 13:37:53;;;;;;;6.28;3.63;;;;;;;;;;10292351;28;20041;-66
2022/04/06 13:42:54;;;;;;;6.60;3.53;;;;;;;;;;10290661;28;20042;-66
2022/04/06 13:47:54;;;;;;;5.88;3.28;;;;;;;;;;10293074;28;20037;-67
2022/04/06 13:52:55;;;;;;;7.45;3.33;;;;;;;;;;10298512;28;20026;-66
2022/04/06 13:57:56;;;;;;;7.43;2.97;;;;;;;;;;10296359;28;20042;-68
2022/04/06 14:02:56;;;;;;;5.18;3.20;;;;;;;;;;10299696;28;20490;-68
2022/04/06 14:07:57;;;;;;;5.63;3.20;;;;;;;;;;10301294;28;20031;-67
2022/04/06 14:12:58;;;;;;;6.40;3.25;;;;;;;;;;10303795;28;20034;-62
2022/04/06 14:18:00;;;;;;;5.18;3.13;;;;;;;;;;10292060;28;20031;-64
2022/04/06 14:23:00;;;;;;;6.38;3.42;;;;;;;;;;10297222;28;20093;-68
2022/04/06 14:28:01;;;;;;;9.73;3.78;;;;;;;;;;10291717;28;20130;-68
2022/04/06 14:33:02;;;;;;;6.03;3.72;;;;;;;;;;10316374;28;20038;-68
2022/04/06 14:38:03;;;;;;;4.35;3.33;;;;;;;;;;10322992;28;20037;-67
2022/04/06 14:43:03;;;;;;;4.38;3.33;;;;;;;;;;10317305;28;20033;-68
2022/04/06 14:48:04;;;;;;;5.32;3.60;;;;;;;;;;10294608;28;20093;-68
2022/04/06 14:53:07;;;;;;;8.98;4.20;;;;;;;;;;10310130;28;20046;-68
2022/04/06 14:58:08;;;;;;;8.70;3.22;;;;;;;;;;10289514;28;20046;-68
2022/04/06 15:03:09;;;;;;;6.45;3.55;;;;;;;;;;10303917;28;20390;-62
2022/04/06 15:08:13;;;;;;;4.72;3.28;;;;;;;;;;10318971;28;20038;-68
2022/04/06 15:13:14;;;;;;;5.43;3.40;;;;;;;;;;10319739;28;20182;-68
2022/04/06 15:18:14;;;;;;;6.28;3.33;;;;;;;;;;10330320;28;20095;-68
2022/04/06 15:23:15;;;;;;;5.82;3.50;;;;;;;;;;10315824;28;20093;-68
2022/04/06 15:28:15;;;;;;;4.55;2.95;;;;;;;;;;10316325;28;20037;-68
2022/04/06 15:33:16;;;;;;;9.32;3.28;;;;;;;;;;10315226;28;20185;-67
2022/04/06 15:38:17;;;;;;;4.50;2.60;;;;;;;;;;10321517;28;20034;-67
2022/04/06 15:43:17;;;;;;;6.25;3.20;;;;;;;;;;10316774;28;20072;-67
2022/04/06 15:48:18;;;;;;;8.77;3.03;;;;;;;;;;10317925;28;20034;-67
2022/04/06 15:53:19;;;;;;;3.08;2.75;;;;;;;;;;10318445;28;20026;-67
2022/04/06 15:58:20;;;;;;;4.45;3.15;;;;;;;;;;10316880;28;20050;-68
2022/04/06 16:03:20;;;;;;;7.05;3.47;;;;;;;;;;10318790;28;20109;-68
2022/04/06 16:08:21;;;;;;;13.80;3.60;;;;;;;;;;10322669;28;20381;-68
2022/04/06 16:13:22;;;;;;;5.95;3.20;;;;;;;;;;10319584;28;20029;-68
2022/04/06 16:18:23;;;;;;;9.20;3.13;;;;;;;;;;10323628;28;20117;-67
2022/04/06 16:23:23;;;;;;;5.47;3.50;;;;;;;;;;10314468;28;20038;-68
2022/04/06 16:28:24;;;;;;;7.78;3.22;;;;;;;;;;10319342;28;20022;-67
2022/04/06 16:33:25;;;;;;;12.20;3.10;;;;;;;;;;10327596;28;20030;-62
2022/04/06 16:38:25;;;;;;;12.25;7.50;;;;;;;;;;10323639;28;20068;-67
2022/04/06 16:43:26;;;;;;;21.75;9.55;;;;;;;;;;10323273;28;20398;-68
2022/04/06 16:48:28;;;;;;;26.20;10.52;;;;;;;;;;10321879;28;20030;-69
2022/04/06 16:53:28;;;;;;;20.48;10.13;;;;;;;;;;10317840;28;20130;-67
2022/04/06 16:58:29;;;;;;;16.70;7.35;;;;;;;;;;10314650;28;20039;-68
2022/04/06 17:03:29;;;;;;;9.10;6.13;;;;;;;;;;10316156;28;20135;-67
2022/04/06 17:08:30;;;;;;;9.40;5.95;;;;;;;;;;10316509;28;20034;-67
2022/04/06 17:13:31;;;;;;;8.55;5.15;;;;;;;;;;10322391;28;20035;-66
2022/04/06 17:18:31;;;;;;;11.63;5.10;;;;;;;;;;10311640;28;20034;-66
2022/04/06 17:23:32;;;;;;;8.50;5.40;;;;;;;;;;10330022;28;20034;-66
2022/04/06 17:28:33;;;;;;;10.95;4.65;;;;;;;;;;10331934;28;20034;-67
2022/04/06 17:33:34;;;;;;;10.02;4.03;;;;;;;;;;10333148;28;20038;-67
2022/04/06 17:38:34;;;;;;;13.27;3.83;;;;;;;;;;10305916;28;20362;-66
2022/04/06 17:43:36;;;;;;;6.90;3.75;;;;;;;;;;10330705;28;20104;-66
2022/04/06 17:48:38;;;;;;;7.40;3.47;;;;;;;;;;10335477;28;20046;-67
2022/04/06 17:53:39;;;;;;;10.95;4.28;;;;;;;;;;10343164;28;20041;-67
2022/04/06 17:58:41;;;;;;;10.95;3.67;;;;;;;;;;10355841;28;20378;-67
2022/04/06 18:03:41;;;;;;;8.90;3.10;;;;;;;;;;10331733;28;20101;-67
2022/04/06 18:08:42;;;;;;;8.07;3.50;;;;;;;;;;10316149;28;20069;-67
2022/04/06 18:13:44;;;;;;;11.85;3.78;;;;;;;;;;10301550;28;20284;-67
2022/04/06 18:18:46;;;;;;;6.05;3.60;;;;;;;;;;10315472;28;20113;-67
2022/04/06 18:23:48;;;;;;;15.07;3.35;;;;;;;;;;10328961;28;20034;-67
2022/04/06 18:28:49;;;;;;;13.95;3.65;;;;;;;;;;10302568;28;20478;-67
2022/04/06 18:33:51;;;;;;;23.95;3.80;;;;;;;;;;10295500;28;20621;-67
2022/04/06 18:38:52;;;;;;;12.30;4.22;;;;;;;;;;10296649;28;20054;-67
2022/04/06 18:43:52;;;;;;;11.48;4.47;;;;;;;;;;10330844;28;20188;-67
2022/04/06 18:48:54;;;;;;;10.95;4.75;;;;;;;;;;10359271;28;20081;-66
2022/04/06 18:53:54;;;;;;;16.27;5.13;;;;;;;;;;10342899;28;20397;-66
2022/04/06 18:58:55;;;;;;;10.77;5.45;;;;;;;;;;10331594;28;20046;-65
2022/04/06 19:03:55;;;;;;;13.20;5.13;;;;;;;;;;10323352;28;20041;-67
2022/04/06 19:08:56;;;;;;;11.07;5.30;;;;;;;;;;10325935;28;20038;-67
2022/04/06 19:13:56;;;;;;;13.75;5.22;;;;;;;;;;10312602;28;20030;-67
2022/04/06 19:18:57;;;;;;;10.40;4.93;;;;;;;;;;10321647;28;20078;-67
2022/04/06 19:23:58;;;;;;;11.23;4.40;;;;;;;;;;10332279;28;20041;-68
2022/04/06 19:28:58;;;;;;;10.57;4.70;;;;;;;;;;10329211;28;20037;-66
2022/04/06 19:33:59;;;;;;;9.38;4.50;;;;;;;;;;10329296;28;20367;-67
2022/04/06 19:39:01;;;;;;;9.57;4.57;;;;;;;;;;10324111;28;20038;-67
2022/04/06 19:44:03;;;;;;;7.05;3.60;;;;;;;;;;10325807;28;20027;-67
2022/04/06 19:49:04;;;;;;;11.15;4.20;;;;;;;;;;10317696;28;20030;-67
2022/04/06 19:54:05;;;;;;;6.35;3.97;;;;;;;;;;10336137;28;20113;-66
2022/04/06 19:59:08;;;;;;;7.97;4.03;;;;;;;;;;10323424;28;20062;-67
2022/04/06 20:04:08;;;;;;;13.90;4.10;;;;;;;;;;10321925;28;20421;-66
2022/04/06 20:09:10;;;;;;;14.70;4.57;;;;;;;;;;10308221;28;20055;-67
2022/04/06 20:14:10;;;;;;;12.43;4.00;;;;;;;;;;10335058;28;20504;-67
2022/04/06 20:19:11;;;;;;;7.55;3.90;;;;;;;;;;10309226;28;20037;-66
2022/04/06 20:24:13;;;;;;;11.27;4.53;;;;;;;;;;10302352;28;20062;-66
2022/04/06 20:29:13;;;;;;;12.27;4.55;;;;;;;;;;10320713;28;20049;-66
2022/04/06 20:34:14;;;;;;;21.02;4.18;;;;;;;;;;10347669;28;20038;-67
2022/04/06 20:39:15;;;;;;;6.57;3.80;;;;;;;;;;10334385;28;20023;-65
2022/04/06 20:44:16;;;;;;;6.72;3.65;;;;;;;;;;10301881;28;20038;-67
2022/04/06 20:49:18;;;;;;;6.72;3.67;;;;;;;;;;10296007;28;20031;-67
2022/04/06 20:54:18;;;;;;;8.55;4.03;;;;;;;;;;10333604;28;20038;-67
2022/04/06 20:59:19;;;;;;;5.65;3.22;;;;;;;;;;10338661;28;20041;-66
2022/04/06 21:04:21;;;;;;;5.63;3.42;;;;;;;;;;10348618;28;20045;-66
2022/04/06 21:09:22;;;;;;;14.50;3.75;;;;;;;;;;10300922;28;20437;-67
2022/04/06 21:14:22;;;;;;;12.45;5.75;;;;;;;;;;10296534;28;20442;-65
2022/04/06 21:19:28;;;;;;;20.48;5.43;;;;;;;;;;10292704;28;20086;-63
2022/04/06 21:24:29;;;;;;;6.07;4.50;;;;;;;;;;10291303;28;20049;-68
2022/04/06 21:29:30;;;;;;;9.80;4.45;;;;;;;;;;10315262;28;20049;-67
2022/04/06 21:34:31;;;;;;;9.02;4.78;;;;;;;;;;10307383;28;20175;-70
2022/04/06 21:39:31;;;;;;;7.38;4.53;;;;;;;;;;10294118;28;20065;-66
2022/04/06 21:44:32;;;;;;;6.07;4.13;;;;;;;;;;10311890;28;20486;-66
2022/04/06 21:49:33;;;;;;;8.82;4.78;;;;;;;;;;10325197;28;20702;-62
2022/04/06 21:54:34;;;;;;;9.00;4.18;;;;;;;;;;10323808;28;20101;-67
2022/04/06 21:59:35;;;;;;;7.22;4.35;;;;;;;;;;10321058;28;20047;-66
2022/04/06 22:04:35;;;;;;;8.05;3.95;;;;;;;;;;10319349;28;20037;-69
2022/04/06 22:09:36;;;;;;;6.60;4.13;;;;;;;;;;10317403;28;20026;-65
2022/04/06 22:14:37;;;;;;;9.27;3.72;;;;;;;;;;10325623;28;20034;-69
2022/04/06 22:19:37;;;;;;;5.63;3.47;;;;;;;;;;10313141;28;20027;-59
2022/04/06 22:24:38;;;;;;;5.45;3.55;;;;;;;;;;10320433;28;20050;-63
2022/04/06 22:29:38;;;;;;;7.47;3.53;;;;;;;;;;10303825;28;20109;-63
2022/04/06 22:34:39;;;;;;;6.80;3.60;;;;;;;;;;10306017;28;20022;-64
2022/04/06 22:39:39;;;;;;;5.60;3.17;;;;;;;;;;10328303;28;20029;-63
2022/04/06 22:44:40;;;;;;;4.80;3.25;;;;;;;;;;10331784;28;20378;-63
2022/04/06 22:49:41;;;;;;;8.18;3.20;;;;;;;;;;10331164;28;20031;-64
2022/04/06 22:54:41;;;;;;;8.43;3.45;;;;;;;;;;10330986;28;20037;-64
2022/04/06 22:59:42;;;;;;;9.07;3.20;;;;;;;;;;10295684;28;20050;-63
2022/04/06 23:04:43;;;;;;;14.98;4.25;;;;;;;;;;10318392;28;20030;-63
2022/04/06 23:09:43;;;;;;;5.22;3.28;;;;;;;;;;10293731;28;20038;-63
2022/04/06 23:14:46;;;;;;;4.90;3.38;;;;;;;;;;10297226;28;20027;-63
2022/04/06 23:19:46;;;;;;;6.10;3.05;;;;;;;;;;10303558;28;20026;-65
2022/04/06 23:24:47;;;;;;;6.03;2.90;;;;;;;;;;10329306;28;20034;-64
2022/04/06 23:29:47;;;;;;;4.10;2.90;;;;;;;;;;10329855;28;20035;-64
2022/04/06 23:34:48;;;;;;;5.28;3.08;;;;;;;;;;10329792;28;20026;-64
2022/04/06 23:39:48;;;;;;;7.53;3.63;;;;;;;;;;10329554;28;20034;-64
2022/04/06 23:44:49;;;;;;;6.28;3.25;;;;;;;;;;10329407;28;20478;-64
2022/04/06 23:49:50;;;;;;;5.72;3.03;;;;;;;;;;10329122;28;20018;-64
2022/04/06 23:54:51;;;;;;;4.05;2.80;;;;;;;;;;10329172;28;20041;-65
2022/04/06 23:59:52;;;;;;;5.95;3.03;;;;;;;;;;10328383;28;20236;-65
